Time;durP1;ratioP1;P1;durP2;ratioP2;P2;SDS_P1;SDS_P2;PMS_P1;PMS_P2;Temp;Humidity;BMP_temperature;BMP_pressure;BME280_temperature;BME280_humidity;BME280_pressure;Samples;Min_cycle;Max_cycle;Signal;HPM_P1;HPM_P2
2023/10/09 00:02:28;;;;;;;14.88;7.93;;;;;;;;;;6201567;23;20016;-82
2023/10/09 00:04:56;;;;;;;11.90;7.38;;;;;;;;;;6201852;23;20020;-83
2023/10/09 00:07:24;;;;;;;15.30;6.90;;;;;;;;;;6227169;23;20023;-82
2023/10/09 00:09:55;;;;;;;16.35;8.25;;;;;;;;;;6202077;23;20016;-82
2023/10/09 00:12:23;;;;;;;14.75;7.93;;;;;;;;;;6225947;23;20026;-82
2023/10/09 00:14:55;;;;;;;12.45;6.75;;;;;;;;;;6175560;23;20016;-83
2023/10/09 00:17:22;;;;;;;17.33;8.48;;;;;;;;;;6201465;23;20050;-83
2023/10/09 00:19:59;;;;;;;13.68;7.38;;;;;;;;;;6226285;23;20016;-82
2023/10/09 00:22:28;;;;;;;17.52;8.02;;;;;;;;;;6263969;23;20463;-83
2023/10/09 00:25:12;;;;;;;12.85;8.02;;;;;;;;;;6201489;23;20016;-83
2023/10/09 00:27:43;;;;;;;12.48;7.38;;;;;;;;;;6253996;22;20047;-82
2023/10/09 00:30:15;;;;;;;9.65;7.43;;;;;;;;;;6201258;23;20018;-82
2023/10/09 00:32:51;;;;;;;19.92;7.60;;;;;;;;;;6237158;23;20019;-82
2023/10/09 00:35:46;;;;;;;10.00;6.95;;;;;;;;;;6237896;23;20019;-82
2023/10/09 00:38:23;;;;;;;9.52;5.68;;;;;;;;;;6201929;23;20030;-83
2023/10/09 00:40:57;;;;;;;10.75;6.43;;;;;;;;;;6201885;23;20026;-82
2023/10/09 00:43:30;;;;;;;7.78;6.03;;;;;;;;;;6201898;23;20027;-82
2023/10/09 00:46:09;;;;;;;14.23;7.07;;;;;;;;;;6227233;23;20022;-82
2023/10/09 00:48:40;;;;;;;9.55;6.47;;;;;;;;;;6202022;23;20028;-82
2023/10/09 00:51:17;;;;;;;7.15;6.15;;;;;;;;;;6202355;23;20027;-82
2023/10/09 00:53:48;;;;;;;10.27;6.00;;;;;;;;;;6200874;23;20026;-82
2023/10/09 00:56:21;;;;;;;9.50;7.05;;;;;;;;;;6200885;23;20016;-82
2023/10/09 00:58:54;;;;;;;13.63;8.05;;;;;;;;;;6237659;23;20018;-82
2023/10/09 01:01:27;;;;;;;11.27;6.70;;;;;;;;;;6264324;23;20012;-82
2023/10/09 01:03:56;;;;;;;12.18;8.07;;;;;;;;;;6200410;23;20022;-82
2023/10/09 01:06:33;;;;;;;14.85;7.82;;;;;;;;;;6233533;23;20023;-82
2023/10/09 01:09:09;;;;;;;20.75;10.13;;;;;;;;;;6202928;23;20026;-82
2023/10/09 01:11:48;;;;;;;23.08;8.95;;;;;;;;;;6200891;23;20357;-82
2023/10/09 01:14:21;;;;;;;9.90;6.40;;;;;;;;;;6237626;23;20016;-82
2023/10/09 01:16:48;;;;;;;6.63;5.55;;;;;;;;;;6201111;23;20361;-82
2023/10/09 01:19:23;;;;;;;9.48;7.82;;;;;;;;;;6200702;23;20016;-82
2023/10/09 01:21:52;;;;;;;7.07;5.47;;;;;;;;;;6226654;23;20024;-82
2023/10/09 01:24:26;;;;;;;12.90;7.13;;;;;;;;;;6200629;23;20466;-82
2023/10/09 01:26:54;;;;;;;9.80;7.22;;;;;;;;;;6201586;23;20016;-83
2023/10/09 01:29:27;;;;;;;8.60;6.40;;;;;;;;;;6226022;23;20017;-82
2023/10/09 01:31:56;;;;;;;12.93;6.95;;;;;;;;;;6236728;23;20027;-83
2023/10/09 01:34:34;;;;;;;10.25;5.47;;;;;;;;;;6226275;23;20016;-83
2023/10/09 01:40:24;;;;;;;6.65;5.32;;;;;;;;;;6275703;22;20004;-88
2023/10/09 01:42:56;;;;;;;7.95;5.40;;;;;;;;;;6273644;22;20068;-89
2023/10/09 01:45:27;;;;;;;6.72;4.82;;;;;;;;;;6241569;23;20016;-89
2023/10/09 01:47:57;;;;;;;7.75;7.05;;;;;;;;;;6202970;23;20024;-89
2023/10/09 01:50:30;;;;;;;9.27;5.93;;;;;;;;;;6187547;23;20017;-89
2023/10/09 01:53:01;;;;;;;6.65;5.82;;;;;;;;;;6162007;23;20013;-90
2023/10/09 01:55:37;;;;;;;8.18;5.95;;;;;;;;;;6186869;23;20020;-88
2023/10/09 01:58:07;;;;;;;6.05;5.03;;;;;;;;;;6162257;23;20016;-88
2023/10/09 02:00:43;;;;;;;8.88;5.13;;;;;;;;;;6196346;23;20013;-88
2023/10/09 02:03:23;;;;;;;5.85;5.22;;;;;;;;;;6161731;23;20017;-88
2023/10/09 02:05:51;;;;;;;6.47;4.97;;;;;;;;;;6193693;23;20453;-88
2023/10/09 02:08:21;;;;;;;5.20;4.53;;;;;;;;;;6161865;23;20017;-88
2023/10/09 02:10:55;;;;;;;6.75;4.90;;;;;;;;;;6162265;23;20023;-88
2023/10/09 02:13:29;;;;;;;6.93;5.10;;;;;;;;;;6197024;23;20040;-88
2023/10/09 02:16:13;;;;;;;6.15;4.90;;;;;;;;;;6161218;23;20024;-88
2023/10/09 02:18:52;;;;;;;6.47;4.85;;;;;;;;;;6161759;23;20020;-88
2023/10/09 02:21:33;;;;;;;6.97;4.95;;;;;;;;;;6139711;23;20023;-87
2023/10/09 02:24:04;;;;;;;6.80;6.05;;;;;;;;;;6161409;23;20017;-88
2023/10/09 02:27:06;;;;;;;8.38;5.25;;;;;;;;;;6191042;23;20473;-87
2023/10/09 02:29:23;;;;;;;5.15;4.57;;;;;;;;;;6215911;23;20016;-88
2023/10/09 02:31:52;;;;;;;10.27;5.95;;;;;;;;;;6187781;23;20017;-88
2023/10/09 02:34:25;;;;;;;7.10;5.50;;;;;;;;;;6225528;23;20013;-88
2023/10/09 02:36:57;;;;;;;8.10;6.47;;;;;;;;;;6163140;23;20021;-88
2023/10/09 02:39:26;;;;;;;7.85;6.13;;;;;;;;;;6163062;23;20021;-88
2023/10/09 02:42:00;;;;;;;7.32;5.20;;;;;;;;;;6163169;23;20024;-87
2023/10/09 02:44:34;;;;;;;6.05;5.45;;;;;;;;;;6163009;23;20330;-88
2023/10/09 02:47:05;;;;;;;7.53;5.93;;;;;;;;;;6163201;23;20016;-87
2023/10/09 02:49:34;;;;;;;12.60;5.07;;;;;;;;;;6162821;23;20488;-88
2023/10/09 02:52:07;;;;;;;6.43;4.68;;;;;;;;;;6197775;23;20008;-88
2023/10/09 02:54:38;;;;;;;8.13;5.50;;;;;;;;;;6163077;23;20027;-88
2023/10/09 02:57:15;;;;;;;6.35;5.30;;;;;;;;;;6190869;23;20013;-87
2023/10/09 02:59:44;;;;;;;6.43;5.78;;;;;;;;;;6162695;23;20017;-87
2023/10/09 03:02:12;;;;;;;8.93;6.43;;;;;;;;;;6187822;23;20027;-87
2023/10/09 03:04:41;;;;;;;7.22;5.13;;;;;;;;;;6213775;23;20039;-88
2023/10/09 03:07:13;;;;;;;8.05;6.03;;;;;;;;;;6187337;23;20023;-88
2023/10/09 03:09:41;;;;;;;7.22;5.28;;;;;;;;;;6188141;23;20342;-88
2023/10/09 03:12:13;;;;;;;9.63;5.40;;;;;;;;;;6198711;23;20020;-87
2023/10/09 03:14:43;;;;;;;6.78;5.38;;;;;;;;;;6174313;23;20345;-88
2023/10/09 03:17:13;;;;;;;7.63;5.30;;;;;;;;;;6187822;23;20024;-88
2023/10/09 03:19:43;;;;;;;9.82;6.20;;;;;;;;;;6163393;23;20024;-87
2023/10/09 03:22:11;;;;;;;6.25;4.78;;;;;;;;;;6163085;23;20016;-88
2023/10/09 03:24:41;;;;;;;4.82;4.38;;;;;;;;;;6162555;23;20023;-88
2023/10/09 03:27:08;;;;;;;7.30;5.22;;;;;;;;;;6162946;23;20349;-87
2023/10/09 03:29:37;;;;;;;7.78;5.22;;;;;;;;;;6163042;23;20017;-88
2023/10/09 03:32:07;;;;;;;8.57;5.93;;;;;;;;;;6197819;23;20028;-88
2023/10/09 03:34:34;;;;;;;5.35;4.78;;;;;;;;;;6188192;23;20013;-87
2023/10/09 03:37:20;;;;;;;9.02;5.15;;;;;;;;;;6162165;23;20457;-88
2023/10/09 03:39:51;;;;;;;7.15;5.07;;;;;;;;;;6162180;23;20017;-88
2023/10/09 03:42:20;;;;;;;8.18;6.22;;;;;;;;;;6187294;23;20016;-88
2023/10/09 03:44:53;;;;;;;5.47;4.95;;;;;;;;;;6163610;23;20043;-88
2023/10/09 03:47:22;;;;;;;6.55;5.40;;;;;;;;;;6187740;23;20017;-88
2023/10/09 03:49:51;;;;;;;8.73;5.18;;;;;;;;;;6223342;23;20028;-88
2023/10/09 03:52:18;;;;;;;9.48;7.32;;;;;;;;;;6213201;23;20016;-88
2023/10/09 03:54:46;;;;;;;5.60;4.88;;;;;;;;;;6187872;23;20028;-88
2023/10/09 03:57:18;;;;;;;7.53;5.30;;;;;;;;;;6162596;23;20474;-88
2023/10/09 03:59:46;;;;;;;6.30;5.75;;;;;;;;;;6188292;23;20056;-87
2023/10/09 04:02:16;;;;;;;7.05;4.97;;;;;;;;;;6187402;23;20024;-87
2023/10/09 04:04:46;;;;;;;7.50;5.43;;;;;;;;;;6138607;23;20488;-87
2023/10/09 04:07:16;;;;;;;7.28;4.88;;;;;;;;;;6187955;23;20013;-87
2023/10/09 04:09:47;;;;;;;6.82;4.43;;;;;;;;;;6163272;23;20017;-87
2023/10/09 04:12:25;;;;;;;5.88;4.90;;;;;;;;;;6223258;23;20020;-87
2023/10/09 04:14:57;;;;;;;6.97;4.47;;;;;;;;;;6197135;23;20020;-87
2023/10/09 04:17:36;;;;;;;7.95;4.40;;;;;;;;;;6162570;23;20017;-87
2023/10/09 04:22:59;;;;;;;7.68;5.95;;;;;;;;;;6197693;23;20322;-87
2023/10/09 04:25:26;;;;;;;6.82;4.45;;;;;;;;;;6187598;23;20020;-87
2023/10/09 04:28:03;;;;;;;5.68;4.57;;;;;;;;;;6187541;23;20019;-88
2023/10/09 04:30:39;;;;;;;6.55;4.65;;;;;;;;;;6161028;23;20020;-87
2023/10/09 04:33:28;;;;;;;9.70;5.50;;;;;;;;;;6195770;23;20340;-88
2023/10/09 04:38:52;;;;;;;4.65;3.95;;;;;;;;;;6223001;23;20341;-88
2023/10/09 04:41:32;;;;;;;4.85;4.38;;;;;;;;;;6163575;23;20024;-88
2023/10/09 04:44:18;;;;;;;5.72;4.22;;;;;;;;;;6224218;23;20353;-88
2023/10/09 04:47:18;;;;;;;5.32;4.00;;;;;;;;;;6161650;23;20020;-87
2023/10/09 04:49:49;;;;;;;6.03;4.82;;;;;;;;;;6159142;23;20017;-87
2023/10/09 04:52:51;;;;;;;5.13;4.05;;;;;;;;;;6183812;23;20024;-87
2023/10/09 04:55:19;;;;;;;6.68;5.00;;;;;;;;;;6213381;23;20016;-87
2023/10/09 04:58:02;;;;;;;4.60;3.65;;;;;;;;;;6186868;23;20115;-87
2023/10/09 05:01:03;;;;;;;5.82;4.18;;;;;;;;;;6198403;23;20031;-87
2023/10/09 05:03:42;;;;;;;8.15;4.53;;;;;;;;;;6223478;23;20331;-87
2023/10/09 05:09:07;;;;;;;8.57;5.47;;;;;;;;;;6213176;23;20020;-87
2023/10/09 05:11:46;;;;;;;6.57;5.47;;;;;;;;;;6222829;23;20009;-87
2023/10/09 05:14:17;;;;;;;6.30;4.05;;;;;;;;;;6185687;23;20225;-87
2023/10/09 05:16:55;;;;;;;4.88;4.35;;;;;;;;;;6192018;23;20027;-87
2023/10/09 05:19:41;;;;;;;7.38;5.25;;;;;;;;;;6196884;23;20357;-87
2023/10/09 05:22:29;;;;;;;6.43;4.15;;;;;;;;;;6196345;23;20012;-87
2023/10/09 05:24:58;;;;;;;6.72;5.22;;;;;;;;;;6162275;23;20017;-87
2023/10/09 05:30:33;;;;;;;5.22;4.35;;;;;;;;;;6212754;23;20027;-87
2023/10/09 05:33:27;;;;;;;7.07;4.72;;;;;;;;;;6161791;23;20013;-87
2023/10/09 05:36:05;;;;;;;5.57;4.93;;;;;;;;;;6161964;23;20028;-88
2023/10/09 05:38:46;;;;;;;5.03;4.53;;;;;;;;;;6195848;23;20012;-88
2023/10/09 05:47:22;;;;;;;5.82;4.47;;;;;;;;;;6176581;23;20030;-88
2023/10/09 05:49:54;;;;;;;6.40;5.75;;;;;;;;;;6196266;23;20016;-87
2023/10/09 05:52:56;;;;;;;6.95;5.15;;;;;;;;;;6195573;23;20020;-87
2023/10/09 06:03:53;;;;;;;6.47;5.07;;;;;;;;;;6182233;23;20043;-88
2023/10/09 06:06:34;;;;;;;7.63;6.20;;;;;;;;;;6162301;23;20027;-87
2023/10/09 06:09:35;;;;;;;6.03;5.10;;;;;;;;;;6193324;23;20044;-87
2023/10/09 06:14:57;;;;;;;12.65;7.10;;;;;;;;;;6133040;23;20040;-87
2023/10/09 06:17:31;;;;;;;5.95;4.03;;;;;;;;;;6162480;23;20017;-87
2023/10/09 06:20:39;;;;;;;;;;;;;;;;;;6196831;23;20008;-87
2023/10/09 06:25:33;;;;;;;8.55;4.32;;;;;;;;;;6181814;23;20505;-87
2023/10/09 06:28:02;;;;;;;5.90;3.95;;;;;;;;;;6162382;23;20031;-87
2023/10/09 06:30:34;;;;;;;6.07;4.70;;;;;;;;;;6187991;23;20016;-87
2023/10/09 06:33:19;;;;;;;10.30;5.78;;;;;;;;;;6161803;23;20020;-87
2023/10/09 06:35:54;;;;;;;5.25;4.13;;;;;;;;;;6162230;23;20022;-87
2023/10/09 06:38:23;;;;;;;4.38;3.83;;;;;;;;;;6162809;23;20020;-87
2023/10/09 06:43:42;;;;;;;8.88;5.38;;;;;;;;;;6199494;23;20016;-87
2023/10/09 06:49:19;;;;;;;7.78;4.40;;;;;;;;;;6161402;23;20353;-87
2023/10/09 06:51:47;;;;;;;8.30;5.13;;;;;;;;;;6196318;23;20024;-87
2023/10/09 06:54:16;;;;;;;7.95;5.63;;;;;;;;;;6162098;23;20024;-87
2023/10/09 06:59:43;;;;;;;9.68;6.18;;;;;;;;;;6161739;23;20024;-87
2023/10/09 07:04:56;;;;;;;8.13;5.10;;;;;;;;;;6161973;23;20013;-87
2023/10/09 07:07:24;;;;;;;9.82;6.32;;;;;;;;;;6182818;23;20024;-87
2023/10/09 07:11:02;;;;;;;4.40;3.72;;;;;;;;;;6185111;23;20012;-88
2023/10/09 07:13:29;;;;;;;7.10;5.60;;;;;;;;;;6197096;23;20020;-88
2023/10/09 07:18:49;;;;;;;8.15;6.43;;;;;;;;;;6223594;23;20028;-87
2023/10/09 07:21:27;;;;;;;7.95;4.88;;;;;;;;;;6163167;23;20027;-87
2023/10/09 07:24:02;;;;;;;6.95;5.00;;;;;;;;;;6162713;23;20012;-87
2023/10/09 07:26:47;;;;;;;6.03;4.97;;;;;;;;;;6163544;23;20021;-87
2023/10/09 07:29:21;;;;;;;8.40;5.03;;;;;;;;;;6197973;23;20464;-88
2023/10/09 07:31:58;;;;;;;6.65;4.82;;;;;;;;;;6188163;23;20028;-88
2023/10/09 07:34:43;;;;;;;6.38;4.95;;;;;;;;;;6187522;23;20019;-87
2023/10/09 07:37:19;;;;;;;10.68;5.50;;;;;;;;;;6166311;22;20013;-88
2023/10/09 07:39:56;;;;;;;8.98;5.07;;;;;;;;;;6226769;23;20087;-82
2023/10/09 07:45:53;;;;;;;6.65;5.00;;;;;;;;;;6221847;23;20016;-82
2023/10/09 07:48:04;;;;;;;9.48;4.50;;;;;;;;;;6173505;23;20020;-82
2023/10/09 07:50:40;;;;;;;5.03;4.25;;;;;;;;;;6233770;23;20019;-82
2023/10/09 07:53:18;;;;;;;6.03;4.45;;;;;;;;;;6172147;23;20484;-82
2023/10/09 07:55:56;;;;;;;5.47;4.88;;;;;;;;;;6172398;23;20021;-82
2023/10/09 07:58:26;;;;;;;7.22;4.82;;;;;;;;;;6173987;23;20031;-82
2023/10/09 08:01:15;;;;;;;6.53;4.75;;;;;;;;;;6174659;23;20027;-82
2023/10/09 08:03:56;;;;;;;9.45;4.55;;;;;;;;;;6197907;23;20019;-82
2023/10/09 08:09:38;;;;;;;10.55;4.95;;;;;;;;;;6194092;23;20031;-82
2023/10/09 08:15:20;;;;;;;7.10;5.00;;;;;;;;;;6171791;23;20027;-83
2023/10/09 08:17:50;;;;;;;8.32;5.40;;;;;;;;;;6200616;23;20027;-82
2023/10/09 08:20:25;;;;;;;5.63;4.97;;;;;;;;;;6238424;23;20402;-82
2023/10/09 08:22:52;;;;;;;8.30;4.70;;;;;;;;;;6201274;23;20027;-82
2023/10/09 08:25:31;;;;;;;8.07;5.53;;;;;;;;;;6228993;23;20012;-83
2023/10/09 08:30:50;;;;;;;5.37;4.53;;;;;;;;;;6177992;23;20024;-82
2023/10/09 08:33:40;;;;;;;;;;;;;;;;;;6170462;23;20020;-82
2023/10/09 08:36:14;;;;;;;7.85;4.38;;;;;;;;;;6170894;23;19919;-83
2023/10/09 08:38:42;;;;;;;7.40;4.70;;;;;;;;;;6198865;23;20021;-83
2023/10/09 08:41:17;;;;;;;6.68;4.78;;;;;;;;;;6170493;23;20039;-83
2023/10/09 08:43:53;;;;;;;7.75;5.78;;;;;;;;;;6231626;23;20352;-82
2023/10/09 08:46:21;;;;;;;6.00;4.25;;;;;;;;;;6229491;23;20031;-82
2023/10/09 08:48:54;;;;;;;10.35;5.68;;;;;;;;;;6232699;23;20036;-83
2023/10/09 08:51:27;;;;;;;6.70;5.47;;;;;;;;;;6196925;23;20025;-83
2023/10/09 08:53:55;;;;;;;9.05;4.85;;;;;;;;;;6170279;23;20361;-82
2023/10/09 08:56:25;;;;;;;11.80;5.88;;;;;;;;;;6222366;23;20027;-82
2023/10/09 08:58:53;;;;;;;7.20;5.78;;;;;;;;;;6196154;23;20020;-82
2023/10/09 09:01:21;;;;;;;11.82;5.28;;;;;;;;;;6222338;23;20013;-82
2023/10/09 09:03:50;;;;;;;11.45;4.75;;;;;;;;;;6221257;23;20020;-83
2023/10/09 09:06:20;;;;;;;7.72;5.43;;;;;;;;;;6195130;23;20020;-83
2023/10/09 09:08:48;;;;;;;8.93;4.75;;;;;;;;;;6195974;23;20031;-82
2023/10/09 09:11:18;;;;;;;9.35;4.35;;;;;;;;;;6170457;23;20016;-83
2023/10/09 09:13:49;;;;;;;6.68;4.90;;;;;;;;;;6205278;23;20016;-83
2023/10/09 09:16:17;;;;;;;8.32;4.40;;;;;;;;;;6222938;23;20443;-82
2023/10/09 09:19:03;;;;;;;9.48;4.38;;;;;;;;;;6196166;23;20042;-83
2023/10/09 09:21:38;;;;;;;11.88;6.07;;;;;;;;;;6205468;23;20017;-83
2023/10/09 09:24:26;;;;;;;10.43;4.45;;;;;;;;;;6232154;23;20019;-83
2023/10/09 09:26:59;;;;;;;6.18;5.05;;;;;;;;;;6170433;23;20031;-83
2023/10/09 09:29:39;;;;;;;11.40;5.28;;;;;;;;;;6170127;23;20444;-83
2023/10/09 09:32:17;;;;;;;17.70;4.72;;;;;;;;;;6204496;23;20020;-83
2023/10/09 09:34:48;;;;;;;8.88;4.38;;;;;;;;;;6205547;23;20023;-83
2023/10/09 09:37:21;;;;;;;9.77;4.55;;;;;;;;;;6223441;23;20013;-82
2023/10/09 09:39:51;;;;;;;9.77;4.68;;;;;;;;;;6197646;23;20021;-83
2023/10/09 09:42:24;;;;;;;7.68;3.80;;;;;;;;;;6197134;23;20027;-83
2023/10/09 09:44:52;;;;;;;7.35;4.00;;;;;;;;;;6197307;23;20017;-83
2023/10/09 09:47:26;;;;;;;5.63;4.18;;;;;;;;;;6197119;23;20021;-82
2023/10/09 09:49:59;;;;;;;6.85;4.00;;;;;;;;;;6171635;23;20480;-83
2023/10/09 09:52:29;;;;;;;8.80;5.70;;;;;;;;;;6172116;23;20024;-83
2023/10/09 09:54:58;;;;;;;6.68;4.45;;;;;;;;;;6171399;23;20023;-83
2023/10/09 09:57:28;;;;;;;13.38;5.82;;;;;;;;;;6225661;23;20027;-83
2023/10/09 09:59:57;;;;;;;8.85;4.95;;;;;;;;;;6197333;23;20031;-82
2023/10/09 10:02:33;;;;;;;10.60;5.78;;;;;;;;;;6196190;23;20013;-83
2023/10/09 10:05:07;;;;;;;6.85;4.30;;;;;;;;;;6207053;23;20009;-83
2023/10/09 10:07:41;;;;;;;11.48;6.05;;;;;;;;;;6196394;23;20024;-83
2023/10/09 10:10:49;;;;;;;11.75;4.93;;;;;;;;;;6171704;23;20023;-83
2023/10/09 10:13:23;;;;;;;13.25;6.68;;;;;;;;;;6205870;23;20023;-83
2023/10/09 10:16:13;;;;;;;9.80;4.85;;;;;;;;;;6172632;23;20016;-83
2023/10/09 10:18:59;;;;;;;13.82;4.60;;;;;;;;;;6206527;23;20013;-82
2023/10/09 10:21:39;;;;;;;8.15;4.20;;;;;;;;;;6207397;23;20110;-82
2023/10/09 10:24:52;;;;;;;8.93;4.25;;;;;;;;;;6195214;23;20021;-82
2023/10/09 10:27:26;;;;;;;6.90;4.55;;;;;;;;;;6171059;23;20024;-82
2023/10/09 10:30:31;;;;;;;8.82;4.75;;;;;;;;;;6196318;23;20017;-82
2023/10/09 10:33:09;;;;;;;14.70;4.90;;;;;;;;;;6169586;23;20028;-82
2023/10/09 10:35:46;;;;;;;8.52;5.68;;;;;;;;;;6228305;23;20039;-83
2023/10/09 10:38:36;;;;;;;15.85;5.10;;;;;;;;;;6169682;23;20026;-82
2023/10/09 10:41:11;;;;;;;8.80;5.03;;;;;;;;;;6206011;23;20019;-83
2023/10/09 10:43:54;;;;;;;9.25;4.55;;;;;;;;;;6195337;23;20353;-83
2023/10/09 10:46:37;;;;;;;11.30;3.95;;;;;;;;;;6194016;23;20020;-83
2023/10/09 10:49:15;;;;;;;5.53;3.50;;;;;;;;;;6203035;23;20068;-83
2023/10/09 10:51:48;;;;;;;7.72;4.72;;;;;;;;;;6168783;23;20361;-83
2023/10/09 10:54:45;;;;;;;12.50;4.03;;;;;;;;;;6169099;23;20020;-83
2023/10/09 10:57:28;;;;;;;14.52;4.50;;;;;;;;;;6223947;23;20017;-82
2023/10/09 11:00:12;;;;;;;15.07;5.05;;;;;;;;;;6231735;23;20012;-82
2023/10/09 11:02:47;;;;;;;6.70;5.18;;;;;;;;;;6171937;23;20096;-82
2023/10/09 11:05:14;;;;;;;9.35;5.22;;;;;;;;;;6195083;23;20027;-82
2023/10/09 11:07:43;;;;;;;12.68;4.10;;;;;;;;;;6170592;23;20361;-82
2023/10/09 11:10:15;;;;;;;8.80;4.78;;;;;;;;;;6232997;23;20016;-82
2023/10/09 11:13:06;;;;;;;6.55;3.95;;;;;;;;;;6204727;23;20018;-82
2023/10/09 11:18:26;;;;;;;21.33;4.78;;;;;;;;;;6147781;23;20021;-83
2023/10/09 11:21:22;;;;;;;5.93;3.53;;;;;;;;;;6169632;23;20024;-83
2023/10/09 11:23:57;;;;;;;7.13;4.22;;;;;;;;;;6219928;23;20022;-83
2023/10/09 11:26:26;;;;;;;12.57;4.72;;;;;;;;;;6147909;23;20027;-83
2023/10/09 11:29:14;;;;;;;6.40;4.15;;;;;;;;;;6168254;23;20021;-83
2023/10/09 11:31:59;;;;;;;12.27;5.10;;;;;;;;;;6168901;23;20038;-83
2023/10/09 11:34:32;;;;;;;7.15;3.60;;;;;;;;;;6168617;23;20013;-82
2023/10/09 11:37:00;;;;;;;9.25;4.25;;;;;;;;;;6169357;23;20017;-82
2023/10/09 11:39:34;;;;;;;13.40;3.58;;;;;;;;;;6193413;23;20020;-82
2023/10/09 11:42:05;;;;;;;5.85;2.83;;;;;;;;;;6167909;23;20020;-83
2023/10/09 11:44:39;;;;;;;10.07;4.10;;;;;;;;;;6169925;23;20357;-83
2023/10/09 11:47:23;;;;;;;8.48;3.80;;;;;;;;;;6170255;23;20013;-83
2023/10/09 11:50:10;;;;;;;11.17;4.27;;;;;;;;;;6204558;23;20449;-83
2023/10/09 11:53:08;;;;;;;9.70;4.70;;;;;;;;;;6194029;23;20244;-83
2023/10/09 11:55:38;;;;;;;7.63;3.13;;;;;;;;;;6203484;23;20021;-83
2023/10/09 11:58:08;;;;;;;8.50;3.47;;;;;;;;;;6193054;23;20021;-83
2023/10/09 12:00:45;;;;;;;7.40;2.80;;;;;;;;;;6193522;23;20023;-83
2023/10/09 12:03:14;;;;;;;7.10;2.75;;;;;;;;;;6167480;23;20023;-83
2023/10/09 12:05:44;;;;;;;8.35;2.67;;;;;;;;;;6168372;23;20016;-83
2023/10/09 12:08:15;;;;;;;9.30;2.95;;;;;;;;;;6194698;23;20043;-83
2023/10/09 12:10:43;;;;;;;7.40;3.13;;;;;;;;;;6168462;23;20020;-83
2023/10/09 12:13:15;;;;;;;9.55;4.38;;;;;;;;;;6168359;23;20475;-83
2023/10/09 12:15:46;;;;;;;9.38;4.32;;;;;;;;;;6193743;23;20023;-83
2023/10/09 12:18:18;;;;;;;7.22;3.65;;;;;;;;;;6230030;23;20024;-83
2023/10/09 12:20:50;;;;;;;9.95;3.85;;;;;;;;;;6167794;23;20027;-83
2023/10/09 12:23:18;;;;;;;12.70;4.43;;;;;;;;;;6167226;23;20017;-83
2023/10/09 12:25:49;;;;;;;8.48;3.75;;;;;;;;;;6168419;23;20020;-84
2023/10/09 12:28:20;;;;;;;7.40;3.83;;;;;;;;;;6168075;23;20028;-83
2023/10/09 12:30:50;;;;;;;9.30;4.00;;;;;;;;;;6192426;23;20016;-83
2023/10/09 12:33:21;;;;;;;7.03;3.20;;;;;;;;;;6193709;23;20027;-82
2023/10/09 12:35:48;;;;;;;7.03;3.38;;;;;;;;;;6167391;23;20013;-83
2023/10/09 12:38:18;;;;;;;6.32;3.10;;;;;;;;;;6228663;23;20463;-83
2023/10/09 12:40:51;;;;;;;;;;;;;;;;;;6200836;23;20016;-84
2023/10/09 12:43:22;;;;;;;5.50;2.97;;;;;;;;;;6195013;23;20336;-83
2023/10/09 12:45:49;;;;;;;6.22;3.25;;;;;;;;;;6193149;23;20256;-82
2023/10/09 12:48:16;;;;;;;5.90;4.03;;;;;;;;;;6192509;23;20021;-83
2023/10/09 12:50:53;;;;;;;10.10;3.95;;;;;;;;;;6167306;23;20024;-83
2023/10/09 12:53:21;;;;;;;5.90;2.97;;;;;;;;;;6166767;23;20020;-83
2023/10/09 12:55:48;;;;;;;12.52;3.58;;;;;;;;;;6191664;23;20015;-83
2023/10/09 12:58:15;;;;;;;8.15;4.03;;;;;;;;;;6191076;23;20012;-83
2023/10/09 13:00:48;;;;;;;10.55;4.22;;;;;;;;;;6218679;23;20034;-83
2023/10/09 13:03:21;;;;;;;5.85;3.38;;;;;;;;;;6191492;23;20027;-83
2023/10/09 13:05:54;;;;;;;5.85;3.20;;;;;;;;;;6165505;23;20381;-83
2023/10/09 13:08:31;;;;;;;7.95;3.08;;;;;;;;;;6228060;23;20020;-83
2023/10/09 13:11:10;;;;;;;6.85;3.70;;;;;;;;;;6199234;23;20471;-83
2023/10/09 13:13:47;;;;;;;7.72;3.25;;;;;;;;;;6166172;23;20027;-83
2023/10/09 13:16:23;;;;;;;7.82;3.70;;;;;;;;;;6163905;23;20357;-83
2023/10/09 13:18:53;;;;;;;7.22;3.42;;;;;;;;;;6191672;23;20020;-84
2023/10/09 13:21:26;;;;;;;11.90;4.47;;;;;;;;;;6218818;23;20026;-83
2023/10/09 13:23:57;;;;;;;;;;;;;;;;;;6191840;23;20026;-83
2023/10/09 13:26:29;;;;;;;7.72;3.95;;;;;;;;;;6197807;23;19919;-83
2023/10/09 13:28:59;;;;;;;12.20;3.47;;;;;;;;;;6164509;23;20024;-83
2023/10/09 13:31:27;;;;;;;4.82;3.13;;;;;;;;;;6164939;23;20021;-83
2023/10/09 13:33:58;;;;;;;5.60;3.50;;;;;;;;;;6164948;23;20110;-83
2023/10/09 13:36:30;;;;;;;9.20;4.25;;;;;;;;;;6164068;23;20475;-83
2023/10/09 13:39:53;;;;;;;9.63;3.25;;;;;;;;;;6213041;22;20024;-89
2023/10/09 13:42:41;;;;;;;6.88;3.03;;;;;;;;;;6195584;23;20031;-90
2023/10/09 13:45:36;;;;;;;7.05;4.38;;;;;;;;;;6192434;23;20024;-88
2023/10/09 13:48:11;;;;;;;7.78;2.95;;;;;;;;;;6222461;23;20017;-89
2023/10/09 13:50:47;;;;;;;8.73;3.88;;;;;;;;;;6162951;23;20032;-89
2023/10/09 13:53:18;;;;;;;9.73;3.80;;;;;;;;;;6161516;23;20013;-89
2023/10/09 13:55:47;;;;;;;5.10;3.55;;;;;;;;;;6161620;23;20020;-87
2023/10/09 13:58:20;;;;;;;5.18;2.88;;;;;;;;;;6185654;23;20020;-87
2023/10/09 14:00:53;;;;;;;6.88;3.65;;;;;;;;;;6185952;23;20020;-87
2023/10/09 14:03:24;;;;;;;8.70;3.85;;;;;;;;;;6223047;23;20467;-87
2023/10/09 14:05:57;;;;;;;8.50;3.58;;;;;;;;;;6221334;23;20016;-87
2023/10/09 14:08:28;;;;;;;6.57;3.35;;;;;;;;;;6186501;23;20020;-87
2023/10/09 14:10:59;;;;;;;7.38;3.08;;;;;;;;;;6162026;23;20028;-87
2023/10/09 14:13:29;;;;;;;8.35;3.63;;;;;;;;;;6160078;23;20017;-87
2023/10/09 14:15:59;;;;;;;7.20;3.97;;;;;;;;;;6186192;23;20013;-87
2023/10/09 14:18:29;;;;;;;12.15;3.42;;;;;;;;;;6161432;23;20016;-87
2023/10/09 14:21:04;;;;;;;12.35;3.28;;;;;;;;;;6161373;23;20017;-87
2023/10/09 14:23:38;;;;;;;8.27;5.28;;;;;;;;;;6185736;23;20353;-87
2023/10/09 14:26:06;;;;;;;6.22;2.70;;;;;;;;;;6161939;23;20020;-87
2023/10/09 14:28:37;;;;;;;5.80;3.38;;;;;;;;;;6162239;23;20027;-87
2023/10/09 14:31:11;;;;;;;6.82;3.45;;;;;;;;;;6164029;23;20024;-87
2023/10/09 14:33:40;;;;;;;6.32;3.15;;;;;;;;;;6188644;23;20353;-87
2023/10/09 14:36:14;;;;;;;9.15;3.95;;;;;;;;;;6164957;23;20028;-87
2023/10/09 14:38:43;;;;;;;7.47;4.55;;;;;;;;;;6195143;23;20017;-87
2023/10/09 14:41:11;;;;;;;10.20;4.03;;;;;;;;;;6216714;23;20072;-87
2023/10/09 14:43:39;;;;;;;8.05;3.45;;;;;;;;;;6238982;23;20016;-86
2023/10/09 14:46:14;;;;;;;10.45;3.47;;;;;;;;;;6166175;23;20028;-86
2023/10/09 14:48:45;;;;;;;8.98;3.50;;;;;;;;;;6213815;23;20032;-86
2023/10/09 14:51:15;;;;;;;6.85;3.42;;;;;;;;;;6195792;23;20548;-86
2023/10/09 14:53:44;;;;;;;8.15;4.53;;;;;;;;;;6161772;23;20020;-87
2023/10/09 14:56:14;;;;;;;5.72;4.15;;;;;;;;;;6162576;23;20013;-87
2023/10/09 14:58:46;;;;;;;10.73;4.85;;;;;;;;;;6225547;23;20017;-87
2023/10/09 15:01:18;;;;;;;6.03;3.42;;;;;;;;;;6224005;23;20017;-87
2023/10/09 15:03:47;;;;;;;12.50;4.15;;;;;;;;;;6187837;23;20025;-87
2023/10/09 15:06:16;;;;;;;8.43;3.50;;;;;;;;;;6186664;23;20031;-87
2023/10/09 15:08:49;;;;;;;8.23;3.50;;;;;;;;;;6198226;23;20456;-87
2023/10/09 15:11:22;;;;;;;11.15;3.45;;;;;;;;;;6188578;23;20067;-87
2023/10/09 15:13:49;;;;;;;6.20;3.30;;;;;;;;;;6202732;23;20032;-87
2023/10/09 15:16:21;;;;;;;10.88;2.90;;;;;;;;;;6223424;23;20020;-87
2023/10/09 15:18:52;;;;;;;13.55;4.50;;;;;;;;;;6196821;23;20027;-86
2023/10/09 15:21:32;;;;;;;6.13;3.03;;;;;;;;;;6192619;23;20453;-87
2023/10/09 15:24:05;;;;;;;7.68;4.10;;;;;;;;;;6199783;23;20016;-87
2023/10/09 15:26:35;;;;;;;9.93;4.18;;;;;;;;;;6171746;23;20025;-86
2023/10/09 15:29:09;;;;;;;8.80;2.85;;;;;;;;;;6175091;23;20084;-87
2023/10/09 15:31:38;;;;;;;5.90;3.33;;;;;;;;;;6190743;23;20023;-87
2023/10/09 15:34:08;;;;;;;8.15;3.17;;;;;;;;;;6188082;23;20024;-87
2023/10/09 15:36:36;;;;;;;10.15;3.08;;;;;;;;;;6161907;23;20016;-87
2023/10/09 15:39:07;;;;;;;7.30;3.47;;;;;;;;;;6162473;23;20016;-87
2023/10/09 15:41:35;;;;;;;7.15;3.00;;;;;;;;;;6196119;23;20020;-87
2023/10/09 15:44:03;;;;;;;6.75;3.17;;;;;;;;;;6160344;23;20032;-86
2023/10/09 15:46:34;;;;;;;8.13;4.80;;;;;;;;;;6190367;23;20083;-88
2023/10/09 15:49:03;;;;;;;6.15;3.33;;;;;;;;;;6221829;23;20047;-87
2023/10/09 15:51:32;;;;;;;5.68;3.10;;;;;;;;;;6161727;23;20180;-87
2023/10/09 15:54:01;;;;;;;4.80;2.30;;;;;;;;;;6160158;23;20020;-86
2023/10/09 15:56:29;;;;;;;8.68;4.03;;;;;;;;;;6186234;23;20623;-87
2023/10/09 15:58:59;;;;;;;8.15;3.28;;;;;;;;;;6162229;23;20044;-87
2023/10/09 16:01:26;;;;;;;6.95;3.28;;;;;;;;;;6160577;23;20020;-87
2023/10/09 16:03:56;;;;;;;7.47;4.35;;;;;;;;;;6184568;23;20361;-87
2023/10/09 16:06:27;;;;;;;7.38;3.40;;;;;;;;;;6161180;23;20449;-87
2023/10/09 16:08:54;;;;;;;6.93;4.25;;;;;;;;;;6185627;23;20024;-87
2023/10/09 16:11:23;;;;;;;7.95;5.10;;;;;;;;;;6186594;23;20023;-87
2023/10/09 16:13:53;;;;;;;30.40;17.38;;;;;;;;;;6186323;23;20017;-87
2023/10/09 16:16:26;;;;;;;19.20;10.57;;;;;;;;;;6162129;23;20020;-87
2023/10/09 16:18:54;;;;;;;10.45;5.97;;;;;;;;;;6161377;23;20020;-87
2023/10/09 16:21:27;;;;;;;9.45;4.22;;;;;;;;;;6185750;23;20028;-87
2023/10/09 16:23:54;;;;;;;11.80;3.92;;;;;;;;;;6211317;23;20012;-88
2023/10/09 16:26:25;;;;;;;8.27;3.83;;;;;;;;;;6161323;23;20016;-88
2023/10/09 16:28:59;;;;;;;9.32;4.75;;;;;;;;;;6212760;23;20016;-88